Time;durP1;ratioP1;P1;durP2;ratioP2;P2;SDS_P1;SDS_P2;PMS_P1;PMS_P2;Temp;Humidity;BMP_temperature;BMP_pressure;BME280_temperature;BME280_humidity;BME280_pressure;Samples;Min_cycle;Max_cycle;Signal;HPM_P1;HPM_P2
2021/01/01 00:00:13;;;;;;;;;;;1.60;99.90;;;;;;5011850;28;19932;-70
2021/01/01 00:02:39;;;;;;;;;;;1.60;99.90;;;;;;5012537;28;19933;-70
2021/01/01 00:05:05;;;;;;;;;;;1.60;99.90;;;;;;5015404;28;19972;-70
2021/01/01 00:07:31;;;;;;;;;;;1.60;99.90;;;;;;5016438;28;19926;-70
2021/01/01 00:09:58;;;;;;;;;;;1.60;99.90;;;;;;5015978;28;20297;-70
2021/01/01 00:12:24;;;;;;;;;;;1.60;99.90;;;;;;5016230;28;19932;-70
2021/01/01 00:14:50;;;;;;;;;;;1.60;99.90;;;;;;5015919;28;19980;-70
2021/01/01 00:17:16;;;;;;;;;;;1.60;99.90;;;;;;5016520;28;19929;-70
2021/01/01 00:19:42;;;;;;;;;;;1.60;99.90;;;;;;5015760;28;19937;-70
2021/01/01 00:22:09;;;;;;;;;;;1.60;99.90;;;;;;5016085;28;19952;-70
2021/01/01 00:24:35;;;;;;;;;;;1.60;99.90;;;;;;5015817;28;19971;-71
2021/01/01 00:27:02;;;;;;;;;;;1.60;99.90;;;;;;5015864;28;20291;-70
2021/01/01 00:29:28;;;;;;;;;;;1.60;99.90;;;;;;5015666;28;20382;-70
2021/01/01 00:31:54;;;;;;;;;;;1.60;99.90;;;;;;5015460;28;19925;-70
2021/01/01 00:34:20;;;;;;;;;;;1.60;99.90;;;;;;5015717;28;19926;-70
2021/01/01 00:36:46;;;;;;;;;;;1.50;99.90;;;;;;5015515;28;19933;-70
2021/01/01 00:39:12;;;;;;;;;;;1.50;99.90;;;;;;5027599;28;19932;-70
2021/01/01 00:41:39;;;;;;;;;;;1.50;99.90;;;;;;5033457;28;19933;-70
2021/01/01 00:44:06;;;;;;;;;;;1.50;99.90;;;;;;5015554;28;19926;-70
2021/01/01 00:46:32;;;;;;;;;;;1.50;99.90;;;;;;5015500;28;20341;-70
2021/01/01 00:48:59;;;;;;;;;;;1.50;99.90;;;;;;5035057;28;20275;-70
2021/01/01 00:51:25;;;;;;;;;;;1.50;99.90;;;;;;5034882;28;20378;-70
2021/01/01 00:53:52;;;;;;;;;;;1.50;99.90;;;;;;5035177;28;19979;-70
2021/01/01 00:56:18;;;;;;;;;;;1.50;99.90;;;;;;5035021;28;19925;-70
2021/01/01 00:58:44;;;;;;;;;;;1.50;99.90;;;;;;5034979;28;20271;-70
2021/01/01 01:01:11;;;;;;;;;;;1.50;99.90;;;;;;5034515;28;19932;-70
2021/01/01 01:03:37;;;;;;;;;;;1.50;99.90;;;;;;5035325;28;19936;-70
2021/01/01 01:06:03;;;;;;;;;;;1.40;99.90;;;;;;5022923;28;19926;-70
2021/01/01 01:08:29;;;;;;;;;;;1.40;99.90;;;;;;5015252;28;20271;-70
2021/01/01 01:10:55;;;;;;;;;;;1.50;99.90;;;;;;5023544;28;19932;-70
2021/01/01 01:13:21;;;;;;;;;;;1.50;99.90;;;;;;5035268;28;20305;-70
2021/01/01 01:15:47;;;;;;;;;;;1.50;99.90;;;;;;5033846;28;19936;-70
2021/01/01 01:18:13;;;;;;;;;;;1.50;99.90;;;;;;5035109;28;19929;-69
2021/01/01 01:20:39;;;;;;;;;;;1.40;99.90;;;;;;5034563;28;19932;-69
2021/01/01 01:23:05;;;;;;;;;;;1.40;99.90;;;;;;5034767;28;19925;-69
2021/01/01 01:25:31;;;;;;;;;;;1.40;99.90;;;;;;5034611;28;19936;-69
2021/01/01 01:27:57;;;;;;;;;;;1.50;99.90;;;;;;5034903;28;19948;-69
2021/01/01 01:30:23;;;;;;;;;;;1.50;99.90;;;;;;5034545;28;19925;-69
2021/01/01 01:32:49;;;;;;;;;;;1.50;99.90;;;;;;5034844;28;19925;-69
2021/01/01 01:35:16;;;;;;;;;;;1.40;99.90;;;;;;5034726;28;19925;-69
2021/01/01 01:37:42;;;;;;;;;;;1.60;99.90;;;;;;5025103;28;20374;-69
2021/01/01 01:40:08;;;;;;;;;;;1.50;99.90;;;;;;5014498;28;19972;-69
2021/01/01 01:42:34;;;;;;;;;;;1.40;99.90;;;;;;5014796;28;19926;-69
2021/01/01 01:45:00;;;;;;;;;;;1.50;99.90;;;;;;5014848;28;19941;-69
2021/01/01 01:47:27;;;;;;;;;;;1.50;99.90;;;;;;5014775;28;19929;-68
2021/01/01 01:49:53;;;;;;;;;;;1.40;99.90;;;;;;5014356;28;19980;-68
2021/01/01 01:52:20;;;;;;;;;;;1.50;99.90;;;;;;5014482;28;19925;-69
2021/01/01 01:54:46;;;;;;;;;;;1.40;99.90;;;;;;5014447;28;19926;-69
2021/01/01 01:57:13;;;;;;;;;;;1.40;99.90;;;;;;5021938;28;20374;-69
2021/01/01 01:59:40;;;;;;;;;;;1.40;99.90;;;;;;5034361;28;19925;-69
2021/01/01 02:02:06;;;;;;;;;;;1.40;99.90;;;;;;5033871;28;19972;-69
2021/01/01 02:04:32;;;;;;;;;;;1.40;99.90;;;;;;5033040;28;19925;-69
2021/01/01 02:06:58;;;;;;;;;;;1.40;99.90;;;;;;5014400;28;19995;-69
2021/01/01 02:09:25;;;;;;;;;;;1.30;99.90;;;;;;5014260;28;20444;-69
2021/01/01 02:11:52;;;;;;;;;;;1.30;99.90;;;;;;5014212;28;19926;-69
2021/01/01 02:14:18;;;;;;;;;;;1.40;99.90;;;;;;5013624;28;19925;-69
2021/01/01 02:16:44;;;;;;;;;;;1.40;99.90;;;;;;5014149;28;20359;-69
2021/01/01 02:19:12;;;;;;;;;;;1.40;99.90;;;;;;5013920;28;19930;-69
2021/01/01 02:21:40;;;;;;;;;;;1.40;99.90;;;;;;5025696;28;19929;-69
2021/01/01 02:24:07;;;;;;;;;;;1.30;99.90;;;;;;5014137;28;19925;-69
2021/01/01 02:26:33;;;;;;;;;;;1.30;99.90;;;;;;5013940;28;19992;-69
2021/01/01 02:28:59;;;;;;;;;;;1.30;99.90;;;;;;5013898;28;19948;-69
2021/01/01 02:31:25;;;;;;;;;;;1.30;99.90;;;;;;5013347;28;19926;-69
2021/01/01 02:33:51;;;;;;;;;;;1.30;99.90;;;;;;5013439;28;19947;-69
2021/01/01 02:36:17;;;;;;;;;;;1.30;99.90;;;;;;5014711;28;19929;-69
2021/01/01 02:38:43;;;;;;;;;;;1.30;99.90;;;;;;5013709;28;19925;-70
2021/01/01 02:41:10;;;;;;;;;;;1.30;99.90;;;;;;5013248;28;19971;-70
2021/01/01 02:43:36;;;;;;;;;;;1.40;99.90;;;;;;5013657;28;19925;-70
2021/01/01 02:46:02;;;;;;;;;;;1.40;99.90;;;;;;5013491;28;19949;-69
2021/01/01 02:48:28;;;;;;;;;;;1.30;99.90;;;;;;5013582;28;19925;-70
2021/01/01 02:50:54;;;;;;;;;;;1.30;99.90;;;;;;5013066;28;19926;-70
2021/01/01 02:53:20;;;;;;;;;;;1.40;99.90;;;;;;5013544;28;19929;-70
2021/01/01 02:55:47;;;;;;;;;;;1.40;99.90;;;;;;5013145;28;20256;-70
2021/01/01 02:58:14;;;;;;;;;;;1.40;99.90;;;;;;5013473;28;19933;-70
2021/01/01 03:00:41;;;;;;;;;;;1.40;99.90;;;;;;5019884;28;19932;-70
2021/01/01 03:03:07;;;;;;;;;;;1.40;99.90;;;;;;5032825;28;20440;-70
2021/01/01 03:05:33;;;;;;;;;;;1.40;99.90;;;;;;5033112;28;19925;-70
2021/01/01 03:07:59;;;;;;;;;;;1.40;99.90;;;;;;5033048;28;19925;-70
2021/01/01 03:10:25;;;;;;;;;;;1.40;99.90;;;;;;5032592;28;20356;-70
2021/01/01 03:12:51;;;;;;;;;;;1.40;99.90;;;;;;5032729;28;19925;-70
2021/01/01 03:15:18;;;;;;;;;;;1.40;99.90;;;;;;5032302;28;19948;-70
2021/01/01 03:17:44;;;;;;;;;;;1.40;99.90;;;;;;5032970;28;19932;-70
2021/01/01 03:20:11;;;;;;;;;;;1.30;99.90;;;;;;5032054;28;19929;-70
2021/01/01 03:22:37;;;;;;;;;;;1.30;99.90;;;;;;5032506;28;19936;-70
2021/01/01 03:25:04;;;;;;;;;;;1.30;99.90;;;;;;5032545;28;19980;-69
2021/01/01 03:27:30;;;;;;;;;;;1.30;99.90;;;;;;5032749;28;19925;-70
2021/01/01 03:29:56;;;;;;;;;;;1.30;99.90;;;;;;5016647;28;19925;-70
2021/01/01 03:32:23;;;;;;;;;;;1.30;99.90;;;;;;5012802;28;19948;-70
2021/01/01 03:34:49;;;;;;;;;;;1.30;99.90;;;;;;5012773;28;19948;-70
2021/01/01 03:37:15;;;;;;;;;;;1.30;99.90;;;;;;5012688;28;20390;-70
2021/01/01 03:39:41;;;;;;;;;;;1.30;99.90;;;;;;5011863;28;19929;-70
2021/01/01 03:42:11;;;;;;;;;;;0.10;99.90;;;;;;5012134;28;19936;-70
2021/01/01 03:44:37;;;;;;;;;;;1.30;99.90;;;;;;5012100;28;20341;-70
2021/01/01 03:47:03;;;;;;;;;;;1.20;99.90;;;;;;5012588;28;19926;-70
2021/01/01 03:49:29;;;;;;;;;;;1.20;99.90;;;;;;5012512;28;19979;-70
2021/01/01 03:51:56;;;;;;;;;;;1.20;99.90;;;;;;5012230;28;19948;-70
2021/01/01 03:54:21;;;;;;;;;;;1.20;99.90;;;;;;5012393;28;20274;-70
2021/01/01 03:56:47;;;;;;;;;;;1.20;99.90;;;;;;5016039;28;20373;-70
2021/01/01 03:59:13;;;;;;;;;;;1.20;99.90;;;;;;5032157;28;19925;-70
2021/01/01 04:01:39;;;;;;;;;;;1.20;99.90;;;;;;5031617;28;20386;-70
2021/01/01 04:04:06;;;;;;;;;;;1.30;99.90;;;;;;5032020;28;19925;-70
2021/01/01 04:06:32;;;;;;;;;;;1.30;99.90;;;;;;5032126;28;19925;-70
2021/01/01 04:08:58;;;;;;;;;;;1.30;99.90;;;;;;5031854;28;19925;-70
2021/01/01 04:11:24;;;;;;;;;;;1.20;99.90;;;;;;5031874;28;19925;-70
2021/01/01 04:13:50;;;;;;;;;;;1.20;99.90;;;;;;5032414;28;19925;-70
2021/01/01 04:16:16;;;;;;;;;;;1.20;99.90;;;;;;5032265;28;19925;-70
2021/01/01 04:18:42;;;;;;;;;;;1.20;99.90;;;;;;5032336;28;19925;-70
2021/01/01 04:21:08;;;;;;;;;;;1.20;99.90;;;;;;5031850;28;20301;-70
2021/01/01 04:23:35;;;;;;;;;;;1.10;99.90;;;;;;5031669;28;19932;-70
2021/01/01 04:26:03;;;;;;;;;;;1.10;99.90;;;;;;5031997;28;19944;-70
2021/01/01 04:28:29;;;;;;;;;;;1.10;99.90;;;;;;5032116;28;19929;-70
2021/01/01 04:30:55;;;;;;;;;;;1.10;99.90;;;;;;5031764;28;20333;-70
2021/01/01 04:33:21;;;;;;;;;;;1.10;99.90;;;;;;5031850;28;19932;-70
2021/01/01 04:35:47;;;;;;;;;;;1.10;99.90;;;;;;5031973;28;19929;-70
2021/01/01 04:38:13;;;;;;;;;;;1.00;99.90;;;;;;5031378;28;19929;-70
2021/01/01 04:40:40;;;;;;;;;;;1.00;99.90;;;;;;5031455;28;19987;-70
2021/01/01 04:43:06;;;;;;;;;;;1.00;99.90;;;;;;4992712;28;19926;-70
2021/01/01 04:45:32;;;;;;;;;;;1.00;99.90;;;;;;4992471;28;19937;-70
2021/01/01 04:47:59;;;;;;;;;;;1.00;99.90;;;;;;4992468;28;19929;-70
2021/01/01 04:50:25;;;;;;;;;;;1.00;99.90;;;;;;4992565;28;20303;-70
2021/01/01 04:52:56;;;;;;;;;;;1.00;99.90;;;;;;5031844;28;19925;-70
2021/01/01 04:55:22;;;;;;;;;;;1.00;99.90;;;;;;5035327;28;19983;-70
2021/01/01 04:57:49;;;;;;;;;;;1.00;99.90;;;;;;5035293;28;19925;-70
2021/01/01 05:00:15;;;;;;;;;;;0.90;99.90;;;;;;5035081;28;19928;-70
2021/01/01 05:02:41;;;;;;;;;;;0.90;99.90;;;;;;5035308;28;19925;-70
2021/01/01 05:05:09;;;;;;;;;;;0.90;99.90;;;;;;5035166;28;19983;-70
2021/01/01 05:07:35;;;;;;;;;;;0.90;99.90;;;;;;5035219;28;19933;-70
2021/01/01 05:10:01;;;;;;;;;;;0.90;99.90;;;;;;5034763;28;19925;-70
2021/01/01 05:12:31;;;;;;;;;;;0.90;99.90;;;;;;5034610;28;20305;-70
2021/01/01 05:14:58;;;;;;;;;;;0.90;99.90;;;;;;5035163;28;19929;-70
2021/01/01 05:17:31;;;;;;;;;;;0.80;99.90;;;;;;5035206;28;19929;-70
2021/01/01 05:20:02;;;;;;;;;;;0.80;99.90;;;;;;5034040;28;20302;-70
2021/01/01 05:22:31;;;;;;;;;;;0.80;99.90;;;;;;5035098;28;19933;-70
2021/01/01 05:25:00;;;;;;;;;;;0.80;99.90;;;;;;5035129;28;19936;-70
2021/01/01 05:27:31;;;;;;;;;;;0.80;99.90;;;;;;5035030;28;20340;-71
2021/01/01 05:29:58;;;;;;;;;;;0.80;99.90;;;;;;5034559;28;19929;-70
2021/01/01 05:32:25;;;;;;;;;;;0.80;99.90;;;;;;5034669;28;19925;-70
2021/01/01 05:34:52;;;;;;;;;;;0.80;99.90;;;;;;5034338;28;19925;-70
2021/01/01 05:37:28;;;;;;;;;;;0.80;99.90;;;;;;5033399;28;19925;-70
2021/01/01 05:40:04;;;;;;;;;;;0.80;99.90;;;;;;5014665;28;19925;-70
2021/01/01 05:42:30;;;;;;;;;;;0.80;99.90;;;;;;5030474;28;19926;-70
2021/01/01 05:44:56;;;;;;;;;;;0.80;99.90;;;;;;5034506;28;20310;-70
2021/01/01 05:47:22;;;;;;;;;;;0.70;99.90;;;;;;5034315;28;19929;-70
2021/01/01 05:49:49;;;;;;;;;;;0.70;99.90;;;;;;5034309;28;19925;-70
2021/01/01 05:52:16;;;;;;;;;;;0.70;99.90;;;;;;5034582;28;20290;-70
2021/01/01 05:54:43;;;;;;;;;;;0.70;99.90;;;;;;5034411;28;19931;-70
2021/01/01 05:57:09;;;;;;;;;;;0.70;99.90;;;;;;5034617;28;19925;-70
2021/01/01 05:59:36;;;;;;;;;;;0.70;99.90;;;;;;5034404;28;19925;-70
2021/01/01 06:02:03;;;;;;;;;;;0.70;99.90;;;;;;5033414;28;19993;-70
2021/01/01 06:04:30;;;;;;;;;;;0.70;99.90;;;;;;5034346;28;19947;-70
2021/01/01 06:06:57;;;;;;;;;;;0.70;99.90;;;;;;5033767;28;19986;-70
2021/01/01 06:09:23;;;;;;;;;;;0.70;99.90;;;;;;5034095;28;19925;-70
2021/01/01 06:12:00;;;;;;;;;;;2.90;99.90;;;;;;5033685;28;19925;-70
2021/01/01 06:14:30;;;;;;;;;;;0.70;99.90;;;;;;5033874;28;20448;-70
2021/01/01 06:17:01;;;;;;;;;;;0.70;99.90;;;;;;5034055;28;19925;-70
2021/01/01 06:19:32;;;;;;;;;;;0.60;99.90;;;;;;5034095;28;20290;-70
2021/01/01 06:22:04;;;;;;;;;;;0.60;99.90;;;;;;5033182;28;20283;-70
2021/01/01 06:24:40;;;;;;;;;;;0.60;99.90;;;;;;5033859;28;19929;-70
2021/01/01 06:27:06;;;;;;;;;;;0.60;99.90;;;;;;5033736;28;20389;-70
2021/01/01 06:29:32;;;;;;;;;;;0.50;99.90;;;;;;5033662;28;19925;-70
2021/01/01 06:31:58;;;;;;;;;;;0.50;99.90;;;;;;5033073;28;19940;-70
2021/01/01 06:34:28;;;;;;;;;;;0.50;99.90;;;;;;5027871;28;20305;-70
2021/01/01 06:36:55;;;;;;;;;;;0.50;99.90;;;;;;5013816;28;19968;-70
2021/01/01 06:39:38;;;;;;;;;;;0.50;99.90;;;;;;5013712;28;19968;-70
2021/01/01 06:42:04;;;;;;;;;;;0.50;99.90;;;;;;5013451;28;19926;-70
2021/01/01 06:44:34;;;;;;;;;;;0.50;99.90;;;;;;5013783;28;19933;-70
2021/01/01 06:47:00;;;;;;;;;;;0.50;99.90;;;;;;5013642;28;19926;-70
2021/01/01 06:49:29;;;;;;;;;;;0.60;99.90;;;;;;5014024;28;19925;-71
2021/01/01 06:52:05;;;;;;;;;;;0.60;99.90;;;;;;5013079;28;19929;-70
2021/01/01 06:54:31;;;;;;;;;;;0.60;99.90;;;;;;5013359;28;20605;-70
2021/01/01 06:57:03;;;;;;;;;;;0.70;99.90;;;;;;5013498;28;19926;-70
2021/01/01 06:59:32;;;;;;;;;;;0.80;99.90;;;;;;5013521;28;19925;-70
2021/01/01 07:02:16;;;;;;;;;;;0.70;99.90;;;;;;5012532;28;19973;-70
2021/01/01 07:04:48;;;;;;;;;;;0.70;99.90;;;;;;4993801;28;20268;-70
2021/01/01 07:07:29;;;;;;;;;;;0.80;99.90;;;;;;4993732;28;19926;-70
2021/01/01 07:09:55;;;;;;;;;;;0.80;99.90;;;;;;4993063;28;19926;-71
2021/01/01 07:12:22;;;;;;;;;;;0.80;99.90;;;;;;4993600;28;19933;-70
2021/01/01 07:14:48;;;;;;;;;;;0.70;99.90;;;;;;4992956;28;19926;-70
2021/01/01 07:17:14;;;;;;;;;;;0.60;99.90;;;;;;5002411;28;19925;-70
2021/01/01 07:19:40;;;;;;;;;;;0.60;99.90;;;;;;5032899;28;19925;-70
2021/01/01 07:22:06;;;;;;;;;;;0.60;99.90;;;;;;5018701;28;19933;-70
2021/01/01 07:24:32;;;;;;;;;;;0.70;99.90;;;;;;5012915;28;19929;-71
2021/01/01 07:26:59;;;;;;;;;;;0.60;99.90;;;;;;5013025;28;20425;-70
2021/01/01 07:29:26;;;;;;;;;;;0.60;99.90;;;;;;5012962;28;19925;-70
2021/01/01 07:31:52;;;;;;;;;;;0.60;99.90;;;;;;5025651;28;19931;-70
2021/01/01 07:34:19;;;;;;;;;;;0.50;99.90;;;;;;5032702;28;19925;-70
2021/01/01 07:36:46;;;;;;;;;;;0.60;99.90;;;;;;5032731;28;19925;-70
2021/01/01 07:39:12;;;;;;;;;;;0.60;99.90;;;;;;5032540;28;19925;-71
2021/01/01 07:41:38;;;;;;;;;;;0.60;99.90;;;;;;5032024;28;20443;-71
2021/01/01 07:44:05;;;;;;;;;;;0.60;99.90;;;;;;5032554;28;19925;-71
2021/01/01 07:46:32;;;;;;;;;;;0.70;99.90;;;;;;5032275;28;19988;-71
2021/01/01 07:48:58;;;;;;;;;;;0.70;99.90;;;;;;5032674;28;19931;-71
2021/01/01 07:51:24;;;;;;;;;;;0.70;99.90;;;;;;5031988;28;19925;-71
2021/01/01 07:53:57;;;;;;;;;;;0.70;99.90;;;;;;5032800;28;19932;-70
2021/01/01 07:56:23;;;;;;;;;;;0.70;99.90;;;;;;5032015;28;19932;-71
2021/01/01 07:58:50;;;;;;;;;;;0.60;99.90;;;;;;5029814;28;19933;-70
2021/01/01 08:01:18;;;;;;;;;;;0.60;99.90;;;;;;5012183;28;19925;-70
2021/01/01 08:03:44;;;;;;;;;;;0.70;99.90;;;;;;5012739;28;19925;-70
2021/01/01 08:06:10;;;;;;;;;;;0.60;99.90;;;;;;5012692;28;19925;-70
2021/01/01 08:08:37;;;;;;;;;;;0.70;99.90;;;;;;5012880;28;19932;-71
2021/01/01 08:11:05;;;;;;;;;;;0.80;99.90;;;;;;5017206;28;19932;-71
2021/01/01 08:13:32;;;;;;;;;;;0.80;99.90;;;;;;5032158;28;19956;-71
2021/01/01 08:16:10;;;;;;;;;;;0.80;99.90;;;;;;5032271;28;19924;-71
2021/01/01 08:18:36;;;;;;;;;;;1.00;99.90;;;;;;5032639;28;20299;-71
2021/01/01 08:21:04;;;;;;;;;;;1.10;99.90;;;;;;5031713;28;19932;-71
2021/01/01 08:23:33;;;;;;;;;;;1.10;99.90;;;;;;5032134;28;20333;-71
2021/01/01 08:26:00;;;;;;;;;;;1.10;99.90;;;;;;5035183;28;19932;-71
2021/01/01 08:28:26;;;;;;;;;;;1.10;99.90;;;;;;5022824;28;19926;-70
2021/01/01 08:30:53;;;;;;;;;;;1.20;99.90;;;;;;5015743;28;20280;-71
2021/01/01 08:33:20;;;;;;;;;;;1.30;99.90;;;;;;5016063;28;19925;-71
2021/01/01 08:35:46;;;;;;;;;;;1.30;99.90;;;;;;5016108;28;19933;-71
2021/01/01 08:38:17;;;;;;;;;;;1.40;99.90;;;;;;5015882;28;19925;-70
2021/01/01 08:40:43;;;;;;;;;;;1.50;99.90;;;;;;5015682;28;19929;-70
2021/01/01 08:43:09;;;;;;;;;;;1.50;99.90;;;;;;5016006;28;19971;-70
2021/01/01 08:45:35;;;;;;;;;;;1.60;99.90;;;;;;5016193;28;19930;-70
2021/01/01 08:48:08;;;;;;;;;;;1.50;99.90;;;;;;5015949;28;19949;-70
2021/01/01 08:50:34;;;;;;;;;;;1.50;99.90;;;;;;5015425;28;19929;-70
2021/01/01 08:53:01;;;;;;;;;;;1.50;99.90;;;;;;5015858;28;20349;-70
2021/01/01 08:55:29;;;;;;;;;;;1.60;99.90;;;;;;5018354;28;19972;-70
2021/01/01 08:58:05;;;;;;;;;;;1.60;99.90;;;;;;5035494;28;19932;-70
2021/01/01 09:00:31;;;;;;;;;;;1.60;99.90;;;;;;5034735;28;19975;-70
2021/01/01 09:02:58;;;;;;;;;;;1.60;99.90;;;;;;5035362;28;19929;-69
2021/01/01 09:05:25;;;;;;;;;;;1.60;99.90;;;;;;5034867;28;19929;-70
2021/01/01 09:08:04;;;;;;;;;;;1.70;99.90;;;;;;5035675;28;19940;-70
2021/01/01 09:10:31;;;;;;;;;;;1.70;99.90;;;;;;5020691;28;20309;-71
2021/01/01 09:12:57;;;;;;;;;;;1.70;99.90;;;;;;5015337;28;19925;-71
2021/01/01 09:15:29;;;;;;;;;;;1.70;99.90;;;;;;5016336;28;19980;-71
2021/01/01 09:18:05;;;;;;;;;;;1.80;99.90;;;;;;5015158;28;19929;-71
2021/01/01 09:20:31;;;;;;;;;;;1.80;99.90;;;;;;5014782;28;20432;-71
2021/01/01 09:23:00;;;;;;;;;;;1.80;99.90;;;;;;5015193;28;20060;-71
2021/01/01 09:25:27;;;;;;;;;;;1.90;99.90;;;;;;5015079;28;20059;-72
2021/01/01 09:27:54;;;;;;;;;;;1.90;99.90;;;;;;5015069;28;19933;-71
2021/01/01 09:30:21;;;;;;;;;;;2.00;99.90;;;;;;5014634;28;19925;-71
2021/01/01 09:32:48;;;;;;;;;;;1.90;99.90;;;;;;5015110;28;19929;-71
2021/01/01 09:35:15;;;;;;;;;;;1.90;99.90;;;;;;5015060;28;20037;-71
2021/01/01 09:37:47;;;;;;;;;;;1.90;99.90;;;;;;5014531;28;19926;-71
2021/01/01 09:40:14;;;;;;;;;;;2.00;99.90;;;;;;5014542;28;19926;-71
2021/01/01 09:42:40;;;;;;;;;;;2.00;99.90;;;;;;5025640;28;19925;-71
2021/01/01 09:45:08;;;;;;;;;;;2.10;99.90;;;;;;5034531;28;20420;-71
2021/01/01 09:47:33;;;;;;;;;;;2.10;99.90;;;;;;5034423;28;20412;-72
2021/01/01 09:49:59;;;;;;;;;;;2.20;99.90;;;;;;5034172;28;19925;-71
2021/01/01 09:52:25;;;;;;;;;;;2.30;99.90;;;;;;5016732;28;19926;-71
2021/01/01 09:54:51;;;;;;;;;;;2.40;99.90;;;;;;5014478;28;20391;-71
2021/01/01 09:57:17;;;;;;;;;;;2.50;99.90;;;;;;5014196;28;19930;-71
2021/01/01 09:59:43;;;;;;;;;;;2.70;99.90;;;;;;5014317;28;19997;-68
2021/01/01 10:02:10;;;;;;;;;;;2.70;99.90;;;;;;5021496;28;19932;-72
2021/01/01 10:04:36;;;;;;;;;;;2.70;99.90;;;;;;5022313;28;19925;-74
2021/01/01 10:07:02;;;;;;;;;;;2.60;99.90;;;;;;5014107;28;20402;-71
2021/01/01 10:09:28;;;;;;;;;;;2.60;99.90;;;;;;5013958;28;19929;-70
2021/01/01 10:11:55;;;;;;;;;;;3.80;99.90;;;;;;5013720;28;19926;-72
2021/01/01 10:14:21;;;;;;;;;;;2.50;99.90;;;;;;5023926;28;19925;-73
2021/01/01 10:16:47;;;;;;;;;;;2.40;99.90;;;;;;5017889;28;19933;-69
2021/01/01 10:19:14;;;;;;;;;;;2.50;99.90;;;;;;5014215;28;19934;-70
2021/01/01 10:21:40;;;;;;;;;;;2.30;99.90;;;;;;5024244;28;20293;-69
2021/01/01 10:24:06;;;;;;;;;;;2.30;99.90;;;;;;5033211;28;19933;-72
2021/01/01 10:26:32;;;;;;;;;;;2.30;99.90;;;;;;5023164;28;19925;-72
2021/01/01 10:28:58;;;;;;;;;;;2.30;99.90;;;;;;5020822;28;19986;-70
2021/01/01 10:31:24;;;;;;;;;;;2.40;99.90;;;;;;5020719;28;20026;-69
2021/01/01 10:33:50;;;;;;;;;;;2.40;99.90;;;;;;5014042;28;19925;-70
2021/01/01 10:36:17;;;;;;;;;;;2.40;99.90;;;;;;5014009;28;19932;-69
2021/01/01 10:38:43;;;;;;;;;;;2.40;99.90;;;;;;5013629;28;20272;-70
2021/01/01 10:41:11;;;;;;;;;;;2.50;99.90;;;;;;5013152;28;19980;-72
2021/01/01 10:43:37;;;;;;;;;;;2.40;99.90;;;;;;5024789;28;19976;-73
2021/01/01 10:46:03;;;;;;;;;;;2.40;99.90;;;;;;5025470;28;19932;-71
2021/01/01 10:48:29;;;;;;;;;;;2.50;99.90;;;;;;5033441;28;20417;-72
2021/01/01 10:50:55;;;;;;;;;;;2.50;99.90;;;;;;5032966;28;19925;-72
2021/01/01 10:53:22;;;;;;;;;;;2.70;99.90;;;;;;5033132;28;19988;-71
2021/01/01 10:55:50;;;;;;;;;;;2.90;99.90;;;;;;5033109;28;19929;-71
2021/01/01 10:58:23;;;;;;;;;;;2.80;99.90;;;;;;5033434;28;19964;-70
2021/01/01 11:00:50;;;;;;;;;;;2.80;99.90;;;;;;5032800;28;19929;-71
2021/01/01 11:03:16;;;;;;;;;;;2.90;99.90;;;;;;5033165;28;19925;-71
2021/01/01 11:05:43;;;;;;;;;;;2.90;99.90;;;;;;5032384;28;21292;-71
2021/01/01 11:08:09;;;;;;;;;;;3.10;99.90;;;;;;5032944;28;19925;-71
2021/01/01 11:10:36;;;;;;;;;;;3.20;99.90;;;;;;5032844;28;19987;-72
2021/01/01 11:13:04;;;;;;;;;;;3.20;99.90;;;;;;5032852;28;20381;-72
2021/01/01 12:24:37;;;;;;;;;;;2.90;99.90;;;;;;5035205;28;19974;-72
2021/01/01 12:27:08;;;;;;;;;;;3.10;99.90;;;;;;5038771;28;20629;-71
2021/01/01 12:29:35;;;;;;;;;;;3.10;99.90;;;;;;5038479;28;19925;-71
2021/01/01 12:32:02;;;;;;;;;;;3.10;99.90;;;;;;5038583;28;19948;-71
2021/01/01 12:34:29;;;;;;;;;;;3.10;99.90;;;;;;5038989;28;19983;-71
2021/01/01 12:36:55;;;;;;;;;;;3.00;99.90;;;;;;5038802;28;19925;-73
2021/01/01 12:39:21;;;;;;;;;;;3.00;99.90;;;;;;5038696;28;19932;-72
2021/01/01 12:41:47;;;;;;;;;;;2.90;99.90;;;;;;5038533;28;20016;-72
2021/01/01 12:44:14;;;;;;;;;;;2.90;99.90;;;;;;5038790;28;19925;-72
2021/01/01 12:46:40;;;;;;;;;;;2.90;99.90;;;;;;5038333;28;20377;-71
2021/01/01 12:49:07;;;;;;;;;;;3.00;99.90;;;;;;5038658;28;19929;-72
2021/01/01 12:51:33;;;;;;;;;;;3.00;99.90;;;;;;5038074;28;19932;-72
2021/01/01 12:53:59;;;;;;;;;;;3.10;99.90;;;;;;5038368;28;19929;-72
2021/01/01 12:56:25;;;;;;;;;;;3.10;99.90;;;;;;5038180;28;19929;-72
2021/01/01 12:58:51;;;;;;;;;;;3.10;99.90;;;;;;5038256;28;19929;-72
2021/01/01 13:01:17;;;;;;;;;;;3.10;99.90;;;;;;5038028;28;19932;-72
2021/01/01 13:03:43;;;;;;;;;;;3.10;99.90;;;;;;5038456;28;20344;-72
2021/01/01 13:06:15;;;;;;;;;;;3.10;99.90;;;;;;5038238;28;19936;-72
2021/01/01 13:08:41;;;;;;;;;;;3.10;99.90;;;;;;5038226;28;19929;-72
2021/01/01 13:11:07;;;;;;;;;;;3.00;99.90;;;;;;5035720;28;19925;-72
2021/01/01 13:13:33;;;;;;;;;;;3.10;99.90;;;;;;5035163;28;19925;-71
2021/01/01 13:15:59;;;;;;;;;;;3.10;99.90;;;;;;5035277;28;20423;-71
2021/01/01 13:18:25;;;;;;;;;;;3.10;99.90;;;;;;5035082;28;19931;-71
2021/01/01 13:20:51;;;;;;;;;;;3.10;99.90;;;;;;5034460;28;19925;-71
2021/01/01 13:23:18;;;;;;;;;;;3.10;99.90;;;;;;5034862;28;19995;-71
2021/01/01 13:25:44;;;;;;;;;;;3.10;99.90;;;;;;5034859;28;19925;-71
2021/01/01 13:28:10;;;;;;;;;;;3.20;99.90;;;;;;5034991;28;19948;-71
2021/01/01 13:30:36;;;;;;;;;;;3.20;99.90;;;;;;5034326;28;19925;-71
2021/01/01 13:33:02;;;;;;;;;;;3.20;99.90;;;;;;5034658;28;19932;-72
2021/01/01 13:35:28;;;;;;;;;;;3.10;99.90;;;;;;5034608;28;19968;-72
2021/01/01 13:37:54;;;;;;;;;;;3.10;99.90;;;;;;5034523;28;19979;-72
2021/01/01 13:40:21;;;;;;;;;;;3.10;99.90;;;;;;5034034;28;20388;-71
2021/01/01 13:42:49;;;;;;;;;;;3.10;99.90;;;;;;5034483;28;19925;-72
2021/01/01 13:45:15;;;;;;;;;;;3.10;99.90;;;;;;5034734;28;19925;-72
2021/01/01 13:47:41;;;;;;;;;;;3.10;99.90;;;;;;5034570;28;19932;-72
2021/01/01 13:50:07;;;;;;;;;;;3.20;99.90;;;;;;5034107;28;19925;-72
2021/01/01 13:52:33;;;;;;;;;;;3.20;99.90;;;;;;5034298;28;19929;-71
2021/01/01 13:54:59;;;;;;;;;;;3.10;99.90;;;;;;5034483;28;19929;-71
2021/01/01 13:57:26;;;;;;;;;;;3.10;99.90;;;;;;5034549;28;20374;-72
2021/01/01 13:59:52;;;;;;;;;;;3.10;99.90;;;;;;5034051;28;20314;-72
2021/01/01 14:02:18;;;;;;;;;;;3.10;99.90;;;;;;5034280;28;20082;-71
2021/01/01 14:04:44;;;;;;;;;;;3.10;99.90;;;;;;5033948;28;19925;-72
2021/01/01 14:07:10;;;;;;;;;;;3.10;99.90;;;;;;5034074;28;19952;-72
2021/01/01 14:09:36;;;;;;;;;;;3.10;99.90;;;;;;5034247;28;19925;-72
2021/01/01 14:12:05;;;;;;;;;;;3.10;99.90;;;;;;5033803;28;19925;-71
2021/01/01 14:14:31;;;;;;;;;;;3.10;99.90;;;;;;5034084;28;20278;-71
2021/01/01 14:16:57;;;;;;;;;;;3.20;99.90;;;;;;5034172;28;19932;-71
2021/01/01 14:19:23;;;;;;;;;;;3.20;99.90;;;;;;5033788;28;19925;-71
2021/01/01 14:21:50;;;;;;;;;;;3.30;99.90;;;;;;5033429;28;19929;-71
2021/01/01 14:24:16;;;;;;;;;;;3.20;99.90;;;;;;5033466;28;19995;-71
2021/01/01 14:26:43;;;;;;;;;;;3.10;99.90;;;;;;5033816;28;19932;-71
2021/01/01 14:29:09;;;;;;;;;;;3.10;99.90;;;;;;5033841;28;19928;-71
2021/01/01 14:31:39;;;;;;;;;;;3.10;99.90;;;;;;5033250;28;19951;-71
2021/01/01 14:34:05;;;;;;;;;;;3.10;99.90;;;;;;5033521;28;19932;-71
2021/01/01 14:36:32;;;;;;;;;;;3.10;99.90;;;;;;5033472;28;19925;-71
2021/01/01 14:38:58;;;;;;;;;;;3.10;99.90;;;;;;5033807;28;20012;-71
2021/01/01 14:41:24;;;;;;;;;;;3.10;99.90;;;;;;5033192;28;19926;-71
2021/01/01 14:43:50;;;;;;;;;;;3.10;99.90;;;;;;5033568;28;20431;-71
2021/01/01 14:46:18;;;;;;;;;;;3.00;99.90;;;;;;5033544;28;19925;-71
2021/01/01 14:48:45;;;;;;;;;;;3.00;99.90;;;;;;5033348;28;20032;-71
2021/01/01 14:51:11;;;;;;;;;;;3.00;99.90;;;;;;5032996;28;19932;-71
2021/01/01 14:53:37;;;;;;;;;;;2.90;99.90;;;;;;5033610;28;19925;-71
2021/01/01 14:56:03;;;;;;;;;;;2.90;99.90;;;;;;5031416;28;19931;-72
2021/01/01 14:58:29;;;;;;;;;;;2.90;99.90;;;;;;5030718;28;19929;-69
2021/01/01 15:00:55;;;;;;;;;;;2.80;99.90;;;;;;5032766;28;19925;-72
2021/01/01 15:03:21;;;;;;;;;;;2.90;99.90;;;;;;5031206;28;19952;-70
2021/01/01 15:05:48;;;;;;;;;;;2.90;99.90;;;;;;5032618;28;19925;-71
2021/01/01 15:08:14;;;;;;;;;;;2.90;99.90;;;;;;5033138;28;19925;-70
2021/01/01 15:10:40;;;;;;;;;;;2.80;99.90;;;;;;5032794;28;19967;-69
2021/01/01 15:13:06;;;;;;;;;;;2.80;99.90;;;;;;5032877;28;19925;-74
2021/01/01 15:15:32;;;;;;;;;;;2.80;99.90;;;;;;5032675;28;19925;-69
2021/01/01 15:17:58;;;;;;;;;;;2.70;99.90;;;;;;5032265;28;19925;-70
2021/01/01 15:20:24;;;;;;;;;;;2.70;99.90;;;;;;4992837;28;20655;-71
2021/01/01 15:22:51;;;;;;;;;;;2.80;99.90;;;;;;4993279;28;20008;-70
2021/01/01 15:25:17;;;;;;;;;;;2.60;99.90;;;;;;4993084;28;19926;-72
2021/01/01 15:27:43;;;;;;;;;;;2.60;99.90;;;;;;4993562;28;19926;-73
2021/01/01 15:30:10;;;;;;;;;;;2.60;99.90;;;;;;4992936;28;19930;-69
2021/01/01 15:32:36;;;;;;;;;;;2.60;99.90;;;;;;4994314;28;19925;-70
2021/01/01 15:35:02;;;;;;;;;;;2.60;99.90;;;;;;5012034;28;19934;-74
2021/01/01 15:37:28;;;;;;;;;;;2.60;99.90;;;;;;5013061;28;19933;-70